createdAt,value
2022-08-17T00:00:43.513Z,21.50
2022-08-17T00:03:15.133Z,21.50
2022-08-17T00:05:52.767Z,21.60
2022-08-17T00:08:26.389Z,21.50
2022-08-17T00:10:56.416Z,21.40
2022-08-17T00:13:31.898Z,21.30
2022-08-17T00:16:02.835Z,21.40
2022-08-17T00:19:01.060Z,21.30
2022-08-17T00:21:26.204Z,21.30
2022-08-17T00:24:15.455Z,21.30
2022-08-17T00:26:45.147Z,21.30
2022-08-17T00:29:20.250Z,21.20
2022-08-17T00:31:52.448Z,21.20
2022-08-17T00:34:21.034Z,21.10
2022-08-17T00:36:51.022Z,21.10
2022-08-17T00:39:20.642Z,21.00
2022-08-17T00:41:49.212Z,21.00
2022-08-17T00:44:17.985Z,21.00
2022-08-17T00:46:49.476Z,21.00
2022-08-17T00:49:19.605Z,21.00
2022-08-17T00:51:59.471Z,20.90
2022-08-17T00:54:32.074Z,20.80
2022-08-17T00:57:05.601Z,20.80
2022-08-17T00:59:40.361Z,20.80
2022-08-17T01:02:12.526Z,20.80
2022-08-17T01:04:41.316Z,20.80
2022-08-17T01:07:12.153Z,20.80
2022-08-17T01:09:43.442Z,20.80
2022-08-17T01:12:13.671Z,20.70
2022-08-17T01:14:43.200Z,20.70
2022-08-17T01:17:12.045Z,20.60
2022-08-17T01:19:43.461Z,20.60
2022-08-17T01:22:24.434Z,20.50
2022-08-17T01:24:59.883Z,20.60
2022-08-17T01:27:29.854Z,20.60
2022-08-17T01:30:56.923Z,20.50
2022-08-17T01:32:56.333Z,20.50
2022-08-17T01:35:25.143Z,20.50
2022-08-17T01:37:55.082Z,20.40
2022-08-17T01:40:31.317Z,20.40
2022-08-17T01:43:04.466Z,20.30
2022-08-17T01:45:38.403Z,20.30
2022-08-17T01:48:07.365Z,20.30
2022-08-17T01:50:39.935Z,20.20
2022-08-17T01:53:14.111Z,20.20
2022-08-17T01:55:48.368Z,20.20
2022-08-17T01:58:17.026Z,20.20
2022-08-17T02:01:00.178Z,20.20
2022-08-17T02:03:31.199Z,20.10
2022-08-17T02:05:59.975Z,20.10
2022-08-17T02:08:38.954Z,20.10
2022-08-17T02:11:11.944Z,20.10
2022-08-17T02:13:41.083Z,20.10
2022-08-17T02:16:09.676Z,20.10
2022-08-17T02:18:42.031Z,20.10
2022-08-17T02:21:10.869Z,20.10
2022-08-17T02:23:44.693Z,20.10
2022-08-17T02:26:25.720Z,20.10
2022-08-17T02:28:55.863Z,20.00
2022-08-17T02:31:24.507Z,20.10
2022-08-17T02:33:56.575Z,20.10
2022-08-17T02:36:29.440Z,20.00
2022-08-17T02:38:59.601Z,20.10
2022-08-17T02:41:28.322Z,20.10
2022-08-17T02:43:58.445Z,20.10
2022-08-17T02:46:27.360Z,20.10
2022-08-17T02:48:56.138Z,20.10
2022-08-17T02:51:25.441Z,20.10
2022-08-17T02:54:00.210Z,20.10
2022-08-17T02:56:45.553Z,20.10
2022-08-17T02:59:14.265Z,20.10
2022-08-17T03:01:43.240Z,20.20
2022-08-17T03:04:11.907Z,20.20
2022-08-17T03:06:40.504Z,20.20
2022-08-17T03:09:09.452Z,20.20
2022-08-17T03:11:38.301Z,20.20
2022-08-17T03:14:08.255Z,20.20
2022-08-17T03:16:36.878Z,20.20
2022-08-17T03:19:05.493Z,20.20
2022-08-17T03:21:34.148Z,20.10
2022-08-17T03:24:08.782Z,20.10
2022-08-17T03:26:37.933Z,20.20
2022-08-17T03:29:08.100Z,20.10
2022-08-17T03:31:37.278Z,20.00
2022-08-17T03:34:06.159Z,20.10
2022-08-17T03:36:35.894Z,20.10
2022-08-17T03:39:05.800Z,20.10
2022-08-17T03:41:34.431Z,20.20
2022-08-17T03:44:03.167Z,20.20
2022-08-17T03:46:50.800Z,20.20
2022-08-17T03:49:37.551Z,20.20
2022-08-17T03:52:23.589Z,20.20
2022-08-17T03:55:11.553Z,20.10
2022-08-17T03:57:40.610Z,20.20
2022-08-17T04:00:16.501Z,20.20
2022-08-17T04:02:46.648Z,20.20
2022-08-17T04:05:16.087Z,20.20
2022-08-17T04:07:48.497Z,20.20
2022-08-17T04:10:17.247Z,20.10
2022-08-17T04:12:49.726Z,20.20
2022-08-17T04:15:19.349Z,20.20
2022-08-17T04:17:52.093Z,20.30
2022-08-17T04:20:23.083Z,20.20
2022-08-17T04:23:09.491Z,20.20
2022-08-17T04:25:40.413Z,20.20
2022-08-17T04:28:16.019Z,20.20
2022-08-17T04:30:48.244Z,20.20
2022-08-17T04:33:20.626Z,20.20
2022-08-17T04:35:51.803Z,20.20
2022-08-17T04:38:22.956Z,20.10
2022-08-17T04:41:10.431Z,20.10
2022-08-17T04:43:40.867Z,20.00
2022-08-17T04:46:11.771Z,19.90
2022-08-17T04:48:46.723Z,19.90
2022-08-17T04:51:17.845Z,19.90
2022-08-17T04:53:54.034Z,19.90
2022-08-17T04:56:25.871Z,19.90
2022-08-17T04:58:57.016Z,20.00
2022-08-17T05:01:28.068Z,20.00
2022-08-17T05:04:21.000Z,20.00
2022-08-17T05:06:50.675Z,20.00
2022-08-17T05:09:19.824Z,20.00
2022-08-17T05:11:49.005Z,20.10
2022-08-17T05:14:17.735Z,20.10
2022-08-17T05:16:49.318Z,20.10
2022-08-17T05:19:19.304Z,20.20
2022-08-17T05:21:48.087Z,20.10
2022-08-17T05:24:36.067Z,20.10
2022-08-17T05:27:06.674Z,20.20
2022-08-17T05:29:36.486Z,20.30
2022-08-17T05:32:38.838Z,20.30
2022-08-17T05:35:00.833Z,20.30
2022-08-17T05:37:29.765Z,20.40
2022-08-17T05:39:58.490Z,20.50
2022-08-17T05:42:27.135Z,20.50
2022-08-17T05:44:58.571Z,20.60
2022-08-17T05:47:28.393Z,20.50
2022-08-17T05:49:57.388Z,20.40
2022-08-17T05:52:37.523Z,20.30
2022-08-17T05:55:15.527Z,20.30
2022-08-17T05:57:56.050Z,20.20
2022-08-17T06:00:31.105Z,20.20
2022-08-17T06:03:24.808Z,20.20
2022-08-17T06:06:04.780Z,20.10
2022-08-17T06:08:43.681Z,20.10
2022-08-17T06:11:22.815Z,20.10
2022-08-17T06:14:17.704Z,20.20
2022-08-17T06:16:52.578Z,20.20
2022-08-17T06:19:25.841Z,20.30
2022-08-17T06:21:56.970Z,20.40
2022-08-17T06:24:34.340Z,20.60
2022-08-17T06:27:09.774Z,20.80
2022-08-17T06:29:46.044Z,21.00
2022-08-17T06:32:15.212Z,21.30
2022-08-17T06:34:46.333Z,21.50
2022-08-17T06:37:44.061Z,21.50
2022-08-17T06:40:29.307Z,21.40
2022-08-17T06:43:13.491Z,21.30
2022-08-17T06:45:49.279Z,21.20
2022-08-17T06:48:26.499Z,21.20
2022-08-17T06:51:00.173Z,21.30
2022-08-17T06:53:36.045Z,21.30
2022-08-17T06:56:09.846Z,21.40
2022-08-17T06:58:40.454Z,21.40
2022-08-17T07:01:14.087Z,21.50
2022-08-17T07:03:47.817Z,21.60
2022-08-17T07:06:19.699Z,21.80
2022-08-17T07:08:56.738Z,21.90
2022-08-17T07:11:31.425Z,22.00
2022-08-17T07:14:16.574Z,22.00
2022-08-17T07:16:50.602Z,22.10
2022-08-17T07:19:23.581Z,22.00
2022-08-17T07:21:58.554Z,22.10
2022-08-17T07:24:37.317Z,22.10
2022-08-17T07:27:11.805Z,22.30
2022-08-17T07:29:44.247Z,22.40
2022-08-17T07:32:15.645Z,22.60
2022-08-17T07:35:04.670Z,22.90
2022-08-17T07:37:34.461Z,23.20
2022-08-17T07:40:17.982Z,23.30
2022-08-17T07:43:07.047Z,23.40
2022-08-17T07:45:56.708Z,23.40
2022-08-17T07:48:27.888Z,23.40
2022-08-17T07:50:57.263Z,23.40
2022-08-17T07:53:27.012Z,23.30
2022-08-17T07:55:55.916Z,23.30
2022-08-17T07:58:26.569Z,23.40
2022-08-17T08:01:09.042Z,23.20
2022-08-17T08:03:43.130Z,23.20
2022-08-17T08:06:22.091Z,23.30
2022-08-17T08:08:54.854Z,23.40
2022-08-17T08:11:35.312Z,23.30
2022-08-17T08:17:03.675Z,23.40
2022-08-17T08:19:34.152Z,23.50
2022-08-17T08:22:11.351Z,23.50
2022-08-17T08:24:56.350Z,23.60
2022-08-17T08:27:38.581Z,23.40
2022-08-17T08:30:14.171Z,23.30
2022-08-17T08:33:07.726Z,23.30
2022-08-17T08:35:45.441Z,23.40
2022-08-17T08:38:23.547Z,23.50
2022-08-17T08:41:12.510Z,23.60
2022-08-17T08:43:52.833Z,23.70
2022-08-17T08:46:34.687Z,23.60
2022-08-17T08:49:59.046Z,23.70
2022-08-17T08:52:40.166Z,23.70
2022-08-17T08:55:17.058Z,23.90
2022-08-17T08:57:53.029Z,24.10
2022-08-17T09:00:25.172Z,24.40
2022-08-17T09:03:17.439Z,24.50
2022-08-17T09:06:32.037Z,24.80
2022-08-17T09:09:11.524Z,24.80
2022-08-17T09:12:02.830Z,24.80
2022-08-17T09:14:46.707Z,25.20
2022-08-17T09:17:20.349Z,25.50
2022-08-17T09:19:55.479Z,25.40
2022-08-17T09:22:33.627Z,25.20
2022-08-17T09:25:09.073Z,25.10
2022-08-17T09:27:52.276Z,24.90
2022-08-17T09:30:23.829Z,24.90
2022-08-17T09:32:57.619Z,24.90
2022-08-17T09:35:33.763Z,25.20
2022-08-17T09:38:20.774Z,25.50
2022-08-17T09:40:54.530Z,26.00
2022-08-17T09:43:32.995Z,26.20
2022-08-17T09:46:05.165Z,26.40
2022-08-17T09:48:40.354Z,26.30
2022-08-17T09:51:16.494Z,26.10
2022-08-17T09:53:46.822Z,26.00
2022-08-17T09:56:32.983Z,26.00
2022-08-17T09:59:27.489Z,26.20
2022-08-17T10:02:31.944Z,25.90
2022-08-17T10:05:04.821Z,25.70
2022-08-17T10:07:38.054Z,25.80
2022-08-17T10:10:14.749Z,25.90
2022-08-17T10:12:53.260Z,25.80
2022-08-17T10:15:36.826Z,25.50
2022-08-17T10:18:30.362Z,25.40
2022-08-17T10:21:21.047Z,25.40
2022-08-17T10:24:13.286Z,25.50
2022-08-17T10:26:57.186Z,25.60
2022-08-17T10:29:47.433Z,25.40
2022-08-17T10:32:26.860Z,25.30
2022-08-17T10:35:07.561Z,25.40
2022-08-17T10:37:59.341Z,25.30
2022-08-17T10:40:37.282Z,25.50
2022-08-17T10:43:29.489Z,25.40
2022-08-17T10:46:21.540Z,25.60
2022-08-17T10:49:27.893Z,25.80
2022-08-17T10:51:58.431Z,25.80
2022-08-17T10:54:47.800Z,25.80
2022-08-17T10:57:41.577Z,25.90
2022-08-17T11:00:31.806Z,25.80
2022-08-17T11:03:01.097Z,25.70
2022-08-17T11:05:53.967Z,25.90
2022-08-17T11:09:04.977Z,26.20
2022-08-17T11:12:06.789Z,26.10
2022-08-17T11:14:49.663Z,26.00
2022-08-17T11:17:48.809Z,25.90
2022-08-17T11:20:49.849Z,25.70
2022-08-17T11:23:50.450Z,25.90
2022-08-17T11:26:27.057Z,26.00
2022-08-17T11:29:00.185Z,26.10
2022-08-17T11:31:39.156Z,26.30
2022-08-17T11:34:18.571Z,26.10
2022-08-17T11:37:23.433Z,26.10
2022-08-17T11:40:28.162Z,26.20
2022-08-17T11:43:16.630Z,25.90
2022-08-17T11:46:05.533Z,25.80
2022-08-17T11:49:00.051Z,25.80
2022-08-17T11:52:09.803Z,25.90
2022-08-17T11:54:46.377Z,25.70
2022-08-17T11:57:47.367Z,25.70
2022-08-17T12:00:51.570Z,25.50
2022-08-17T12:03:42.541Z,25.10
2022-08-17T12:06:44.281Z,24.90
2022-08-17T12:09:19.487Z,24.80
2022-08-17T12:11:55.542Z,24.80
2022-08-17T12:17:41.030Z,24.50
2022-08-17T12:20:16.380Z,24.60
2022-08-17T12:22:53.796Z,24.60
2022-08-17T12:25:33.257Z,24.50
2022-08-17T12:28:06.086Z,24.50
2022-08-17T12:30:38.049Z,24.50
2022-08-17T12:33:28.095Z,24.40
2022-08-17T12:36:00.038Z,24.30
2022-08-17T12:38:32.530Z,24.40
2022-08-17T12:41:21.655Z,24.30
2022-08-17T12:44:01.571Z,24.30
2022-08-17T12:46:33.696Z,24.40
2022-08-17T12:49:23.674Z,24.60
2022-08-17T12:51:57.066Z,24.60
2022-08-17T12:54:31.604Z,24.50
2022-08-17T12:57:07.706Z,24.30
2022-08-17T12:59:42.648Z,24.30
2022-08-17T13:02:23.002Z,24.00
2022-08-17T13:04:51.780Z,23.80
2022-08-17T13:07:33.778Z,23.90
2022-08-17T13:10:03.045Z,23.90
2022-08-17T13:12:36.691Z,23.90
2022-08-17T13:15:07.794Z,23.80
2022-08-17T13:17:37.699Z,23.70
2022-08-17T13:20:15.061Z,23.40
2022-08-17T13:22:44.463Z,23.20
2022-08-17T13:25:17.962Z,23.10
2022-08-17T13:27:51.437Z,22.80
2022-08-17T13:30:27.032Z,22.60
2022-08-17T13:32:57.477Z,22.50
2022-08-17T13:35:48.806Z,22.40
2022-08-17T13:38:41.096Z,22.40
2022-08-17T13:41:29.700Z,22.60
2022-08-17T13:44:00.510Z,22.60
2022-08-17T13:46:32.801Z,22.40
2022-08-17T13:49:04.906Z,22.10
2022-08-17T13:51:42.663Z,21.80
2022-08-17T13:54:26.278Z,21.70
2022-08-17T13:56:59.397Z,21.70
2022-08-17T13:59:55.072Z,21.70
2022-08-17T14:02:25.978Z,21.70
2022-08-17T14:04:59.110Z,21.90
2022-08-17T14:07:32.154Z,22.10
2022-08-17T14:10:03.681Z,22.10
2022-08-17T14:12:34.217Z,22.00
2022-08-17T14:15:05.124Z,21.90
2022-08-17T14:17:38.686Z,21.80
2022-08-17T14:20:10.906Z,21.70
2022-08-17T14:22:41.745Z,21.70
2022-08-17T14:25:12.664Z,21.80
2022-08-17T14:27:52.864Z,21.90
2022-08-17T14:30:29.676Z,21.90
2022-08-17T14:32:59.504Z,21.60
2022-08-17T14:35:29.630Z,21.40
2022-08-17T14:37:58.535Z,21.40
2022-08-17T14:40:28.152Z,21.40
2022-08-17T14:42:58.039Z,21.50
2022-08-17T14:45:32.945Z,21.60
2022-08-17T14:48:05.873Z,21.70
2022-08-17T14:50:36.045Z,21.90
2022-08-17T14:53:06.700Z,22.00
2022-08-17T14:55:39.722Z,22.00
2022-08-17T14:58:09.148Z,22.00
2022-08-17T15:00:40.896Z,22.10
2022-08-17T15:03:11.465Z,22.00
2022-08-17T15:05:40.552Z,22.10
2022-08-17T15:08:09.191Z,22.20
2022-08-17T15:10:39.235Z,22.30
2022-08-17T15:13:18.120Z,22.10
2022-08-17T15:15:48.887Z,22.10
2022-08-17T15:18:17.925Z,22.10
2022-08-17T15:20:49.116Z,22.10
2022-08-17T15:23:19.291Z,22.20
2022-08-17T15:25:49.859Z,22.40
2022-08-17T15:28:18.449Z,22.50
2022-08-17T15:30:48.657Z,22.80
2022-08-17T15:33:19.181Z,23.50
2022-08-17T15:35:51.310Z,23.80
2022-08-17T15:38:20.375Z,23.90
2022-08-17T15:40:50.962Z,23.90
2022-08-17T15:43:27.093Z,23.70
2022-08-17T15:46:01.690Z,23.50
2022-08-17T15:48:42.029Z,23.40
2022-08-17T15:51:13.506Z,23.30
2022-08-17T15:53:43.596Z,23.10
2022-08-17T15:56:13.700Z,22.90
2022-08-17T15:58:44.098Z,22.80
2022-08-17T16:01:18.729Z,22.90
2022-08-17T16:04:06.886Z,22.80
2022-08-17T16:06:54.413Z,22.70
2022-08-17T16:09:23.240Z,22.60
2022-08-17T16:11:55.261Z,22.50
2022-08-17T16:14:34.181Z,22.50
2022-08-17T16:17:38.343Z,22.40
2022-08-17T16:19:55.369Z,22.30
2022-08-17T16:22:33.606Z,22.30
2022-08-17T16:25:05.748Z,22.20
2022-08-17T16:27:34.434Z,22.10
2022-08-17T16:30:03.287Z,22.10
2022-08-17T16:32:33.506Z,22.00
2022-08-17T16:35:03.452Z,22.10
2022-08-17T16:37:34.248Z,22.00
2022-08-17T16:40:04.426Z,22.00
2022-08-17T16:42:36.029Z,21.90
2022-08-17T16:45:08.784Z,21.90
2022-08-17T16:47:39.176Z,21.70
2022-08-17T16:50:10.245Z,21.70
2022-08-17T16:52:39.418Z,21.70
2022-08-17T16:55:13.359Z,21.80
2022-08-17T16:57:47.206Z,21.80
2022-08-17T17:00:20.997Z,21.90
2022-08-17T17:02:51.815Z,22.00
2022-08-17T17:05:34.200Z,22.00
2022-08-17T17:08:07.794Z,22.00
2022-08-17T17:10:41.291Z,22.10
2022-08-17T17:13:15.122Z,21.90
2022-08-17T17:15:53.687Z,21.80
2022-08-17T17:18:31.669Z,21.60
2022-08-17T17:21:01.195Z,21.40
2022-08-17T17:23:37.242Z,21.30
2022-08-17T17:26:18.841Z,21.30
2022-08-17T17:28:59.978Z,21.30
2022-08-17T17:31:38.322Z,21.30
2022-08-17T17:34:12.983Z,21.20
2022-08-17T17:36:47.187Z,21.20
2022-08-17T17:39:20.293Z,21.30
2022-08-17T17:41:52.747Z,21.30
2022-08-17T17:44:27.479Z,21.30
2022-08-17T17:46:59.261Z,21.50
2022-08-17T17:49:35.142Z,21.50
2022-08-17T17:52:14.579Z,21.40
2022-08-17T17:54:56.911Z,21.30
2022-08-17T17:57:36.913Z,21.50
2022-08-17T18:00:10.813Z,21.60
2022-08-17T18:02:52.755Z,21.40
2022-08-17T18:05:39.008Z,21.10
2022-08-17T18:08:18.236Z,20.80
2022-08-17T18:10:54.488Z,20.80
2022-08-17T18:13:35.434Z,20.60
2022-08-17T18:16:07.893Z,20.50
2022-08-17T18:18:44.619Z,20.40
2022-08-17T18:21:20.908Z,20.40
2022-08-17T18:23:57.335Z,20.60
2022-08-17T18:26:38.520Z,20.50
2022-08-17T18:29:21.711Z,20.50
2022-08-17T18:31:55.343Z,20.50
2022-08-17T18:34:48.659Z,20.40
2022-08-17T18:37:35.769Z,20.40
2022-08-17T18:40:27.471Z,20.40
2022-08-17T18:43:04.016Z,20.40
2022-08-17T18:45:35.974Z,20.40
2022-08-17T18:48:06.210Z,20.40
2022-08-17T18:50:41.884Z,20.40
2022-08-17T18:53:36.797Z,20.50
2022-08-17T18:56:33.882Z,20.60
2022-08-17T18:59:22.639Z,20.60
2022-08-17T19:02:38.607Z,20.70
2022-08-17T19:05:13.605Z,20.70
2022-08-17T19:07:45.196Z,20.70
2022-08-17T19:10:22.340Z,20.70
2022-08-17T19:13:00.301Z,20.60
2022-08-17T19:15:35.826Z,20.50
2022-08-17T19:18:15.473Z,20.50
2022-08-17T19:20:48.708Z,20.40
2022-08-17T19:23:25.215Z,20.40
2022-08-17T19:25:59.514Z,20.40
2022-08-17T19:28:33.803Z,20.40
2022-08-17T19:31:09.637Z,20.40
2022-08-17T19:33:38.641Z,20.40
2022-08-17T19:36:10.996Z,20.30
2022-08-17T19:38:46.502Z,20.20
2022-08-17T19:41:23.796Z,20.20
2022-08-17T19:44:06.817Z,20.30
2022-08-17T19:46:49.983Z,20.40
2022-08-17T19:49:40.909Z,20.50
2022-08-17T19:52:24.138Z,20.60
2022-08-17T19:54:58.969Z,20.60
2022-08-17T19:57:48.188Z,20.60
2022-08-17T20:00:19.191Z,20.60
2022-08-17T20:02:54.455Z,20.60
2022-08-17T20:05:37.291Z,20.60
2022-08-17T20:08:21.722Z,20.60
2022-08-17T20:10:56.659Z,20.60
2022-08-17T20:13:33.277Z,20.60
2022-08-17T20:16:03.333Z,20.60
2022-08-17T20:18:38.098Z,20.60
2022-08-17T20:21:19.926Z,20.50
2022-08-17T20:23:54.894Z,20.50
2022-08-17T20:26:28.171Z,20.50
2022-08-17T20:29:10.531Z,20.50
2022-08-17T20:31:46.089Z,20.40
2022-08-17T20:34:37.386Z,20.30
2022-08-17T20:37:09.419Z,20.30
2022-08-17T20:39:41.777Z,20.30
2022-08-17T20:42:28.495Z,20.30
2022-08-17T20:45:02.463Z,20.30
2022-08-17T20:47:35.063Z,20.20
2022-08-17T20:50:09.367Z,20.20
2022-08-17T20:52:59.636Z,20.20
2022-08-17T20:55:51.671Z,20.20
2022-08-17T20:58:49.784Z,20.20
2022-08-17T21:01:37.391Z,20.20
2022-08-17T21:04:09.260Z,20.20
2022-08-17T21:07:17.491Z,20.10
2022-08-17T21:09:46.555Z,20.10
2022-08-17T21:12:47.917Z,20.10
2022-08-17T21:15:31.277Z,20.00
2022-08-17T21:18:10.272Z,20.00
2022-08-17T21:20:48.516Z,20.00
2022-08-17T21:23:40.343Z,19.90
2022-08-17T21:26:19.247Z,19.90
2022-08-17T21:29:17.201Z,19.90
2022-08-17T21:32:17.124Z,19.80
2022-08-17T21:35:21.256Z,19.80
2022-08-17T21:37:54.126Z,19.80
2022-08-17T21:40:26.850Z,19.70
2022-08-17T21:42:58.352Z,19.60
2022-08-17T21:45:31.636Z,19.60
2022-08-17T21:48:11.178Z,19.60
2022-08-17T21:50:41.661Z,19.60
2022-08-17T21:53:18.516Z,19.60
2022-08-17T21:55:51.412Z,19.60
2022-08-17T21:58:30.471Z,19.60
2022-08-17T22:01:25.798Z,19.50
2022-08-17T22:04:01.877Z,19.50
2022-08-17T22:06:36.530Z,19.50
2022-08-17T22:09:15.108Z,19.40
2022-08-17T22:11:59.600Z,19.40
2022-08-17T22:14:52.755Z,19.40
2022-08-17T22:17:24.852Z,19.30
2022-08-17T22:19:56.371Z,19.30
2022-08-17T22:22:32.551Z,19.30
2022-08-17T22:25:05.459Z,19.30
2022-08-17T22:27:55.776Z,19.30
2022-08-17T22:30:32.868Z,19.30
2022-08-17T22:33:02.834Z,19.20
2022-08-17T22:35:41.105Z,19.20
2022-08-17T22:38:34.268Z,19.30
2022-08-17T22:41:37.054Z,19.30
2022-08-17T22:44:23.142Z,19.30
2022-08-17T22:47:02.025Z,19.30
2022-08-17T22:49:35.279Z,19.20
2022-08-17T22:52:22.982Z,19.30
2022-08-17T22:55:30.510Z,19.20
2022-08-17T22:58:18.954Z,19.20
2022-08-17T23:00:50.073Z,19.20
2022-08-17T23:03:22.917Z,19.20
2022-08-17T23:06:06.204Z,19.20
2022-08-17T23:08:39.253Z,19.30
2022-08-17T23:11:09.314Z,19.20
2022-08-17T23:13:40.378Z,19.10
2022-08-17T23:16:08.992Z,19.10
2022-08-17T23:18:37.845Z,19.10
2022-08-17T23:21:07.692Z,19.10
2022-08-17T23:23:37.158Z,19.10
2022-08-17T23:26:11.348Z,19.00
2022-08-17T23:28:43.734Z,18.90
2022-08-17T23:31:13.873Z,18.90
2022-08-17T23:33:43.149Z,18.80
2022-08-17T23:36:16.900Z,18.80
2022-08-17T23:38:46.845Z,18.70
2022-08-17T23:41:19.795Z,18.70
2022-08-17T23:43:53.380Z,18.70
2022-08-17T23:46:22.445Z,18.70
2022-08-17T23:48:52.639Z,18.70
2022-08-17T23:51:24.609Z,18.70
2022-08-17T23:54:01.246Z,18.70
2022-08-17T23:56:33.616Z,18.70
2022-08-17T23:59:03.711Z,18.80
